Tiona, New York
Current Conditions -  °F | °C
As of 8:53 PM on Friday 19 Dec 2014 (Local Time) from KBGM Reporting Station
Overcast Overcast  
Wind Chill: -13°   Ceiling: 1000
Heat Index: -6°   Visibility: 10mi
Dew Point: -7°   Wind: 15mph
Humidity: 89%   Direction: 340°NNW
Pressure: 30.13"   Gusts: 23mph
Location:  42.2341°N, 76.1713°W
Report Text: KBGM 200153Z 34013G20KT 10SM OVC010 M06/M07 A3013 RMK AO2 SLP228 T10561072
Loading
Personal Weather Stations






























Interactive Weather Map New forecast layout! Learn more

10-Day Weather Forecast

Advertisements
Track Severe Weather on mobile